Portada
METAR-TAF:

METAR-TAF

Aeroports :

Dehradun, Índia

latitud: 30-11-23N, longitud: 78-10-49E, altitud: 558 m

METAR: manca

Hora: 16:29 (10:59 UTC)

Pronòstic

L'informe es va fer fa 5 hores i 59 minuts, a les 05:00 UTC
Pronòstic vàlid del 25 a les 06 UTC al 25 a les 15 UTC
Vent 8 kt del Sud/Sud-Est
Visibilitat: 5000 m
calitja
Evolucionant progressivament
l' 25 a les 12 UTC al 25 a les 14 UTC
Vent 8 kt del Sud amb ràfegues de 18 kt
Visibilitat: 4000 m
Escasses núvols a una alçada de 3500 ft
Núvols disperses a una alçada de 10000 ft
calitja

TAF: VIDN 250500Z 2506/2515 16008KT 5000 HZ NSC BECMG 2512/2514 17008G18KT 4000 HZ FEW035 SCT100

Observacions i pronòstics meteorològics de més de 4000 aeroports (METAR i TAF).

Les estacions disponibles són els punts grocs i vermells al mapa.

Posi el ratolí al punt desitjat per veure el nom de l'estació.

Feu clic per veure les observacions i els pronòstics meteorològics.

Per canviar el mapa: feu clic els botons verds amb una creu de color negre per apropar; al botó verd amb un guió per allunyar la imatge; o en les fletxes verdes per a mapes adjacents.


METAR-TAF: